Time;durP1;ratioP1;P1;durP2;ratioP2;P2;SDS_P1;SDS_P2;PMS_P1;PMS_P2;Temp;Humidity;BMP_temperature;BMP_pressure;BME280_temperature;BME280_humidity;BME280_pressure;Samples;Min_cycle;Max_cycle;Signal;HPM_P1;HPM_P2
2021/12/25 00:01:20;;;;;;;4.25;1.23;;;-0.60;99.90;;;;;;5053320;28;20393;-76
2021/12/25 00:03:47;;;;;;;7.68;1.83;;;-0.60;99.90;;;;;;5059032;28;20120;-76
2021/12/25 00:06:13;;;;;;;6.18;1.25;;;-0.60;99.90;;;;;;5056122;28;20052;-76
2021/12/25 00:08:39;;;;;;;8.48;1.23;;;-0.70;99.90;;;;;;5073141;28;20101;-75
2021/12/25 00:11:07;;;;;;;7.57;0.85;;;-0.50;99.90;;;;;;5056167;28;20040;-75
2021/12/25 00:13:34;;;;;;;11.00;1.30;;;-0.70;99.90;;;;;;5073951;28;20094;-75
2021/12/25 00:16:00;;;;;;;12.10;1.50;;;-0.70;99.90;;;;;;5055184;28;20041;-75
2021/12/25 00:18:26;;;;;;;3.97;1.30;;;-0.80;99.90;;;;;;5055625;28;20079;-75
2021/12/25 00:20:52;;;;;;;4.13;0.90;;;-0.80;99.90;;;;;;5055599;28;20048;-75
2021/12/25 00:23:18;;;;;;;6.90;1.10;;;-0.80;99.90;;;;;;5072932;28;20037;-75
2021/12/25 00:25:49;;;;;;;6.95;1.50;;;-0.50;99.90;;;;;;5056181;28;20443;-75
2021/12/25 00:36:21;;;;;;;7.93;1.48;;;-0.60;99.90;;;;;;5072534;28;20514;-75
2021/12/25 00:38:50;;;;;;;5.60;0.98;;;-0.90;99.90;;;;;;5073836;28;20145;-75
2021/12/25 00:41:19;;;;;;;3.95;1.00;;;-1.00;99.90;;;;;;5055674;28;20047;-75
2021/12/25 00:43:45;;;;;;;6.22;1.02;;;-1.00;99.90;;;;;;5054971;28;20135;-75
2021/12/25 00:46:12;;;;;;;3.15;1.00;;;-1.00;99.90;;;;;;5055520;28;20049;-75
2021/12/25 00:48:38;;;;;;;6.50;1.23;;;-0.50;99.90;;;;;;5055320;28;20090;-75
2021/12/25 00:51:05;;;;;;;4.43;1.00;;;-1.00;99.90;;;;;;5072719;28;20373;-75
2021/12/25 00:53:31;;;;;;;5.75;1.65;;;-1.10;99.90;;;;;;5055401;28;20057;-74
2021/12/25 00:55:57;;;;;;;1.92;0.93;;;-1.10;99.90;;;;;;5055317;28;20495;-75
2021/12/25 00:58:23;;;;;;;5.60;0.90;;;-1.10;99.90;;;;;;5051138;28;20040;-74
2021/12/25 01:00:49;;;;;;;2.90;0.77;;;-1.10;99.90;;;;;;5054201;28;20396;-74
2021/12/25 01:03:15;;;;;;;8.55;1.58;;;-0.10;99.90;;;;;;5055148;28;20557;-74
2021/12/25 01:05:41;;;;;;;2.28;1.05;;;-1.20;99.90;;;;;;5054495;28;20045;-75
2021/12/25 01:08:07;;;;;;;1.35;0.65;;;-1.20;99.90;;;;;;5073080;28;20102;-74
2021/12/25 01:10:34;;;;;;;8.35;0.90;;;-0.40;99.90;;;;;;5072773;28;20040;-74
2021/12/25 01:13:14;;;;;;;5.65;1.50;;;-0.20;99.90;;;;;;5054431;28;20488;-74
2021/12/25 01:34:29;;;;;;;5.03;1.00;;;-1.50;99.90;;;;;;5075522;28;20040;-74
2021/12/25 01:47:44;;;;;;;5.00;0.85;;;-1.60;99.90;;;;;;5039081;28;20076;-73
2021/12/25 01:50:07;;;;;;;3.47;0.90;;;-1.70;99.90;;;;;;5058492;28;20057;-73
2021/12/25 01:52:33;;;;;;;5.72;0.98;;;-1.70;99.90;;;;;;5059009;28;20419;-73
2021/12/25 01:55:03;;;;;;;2.60;0.70;;;-1.70;99.90;;;;;;5057900;28;20040;-73
2021/12/25 01:57:30;;;;;;;2.35;0.70;;;-1.80;99.90;;;;;;5076706;28;20137;-73
2021/12/25 01:59:58;;;;;;;6.28;1.63;;;-1.80;99.90;;;;;;5058629;28;20059;-73
2021/12/25 02:02:25;;;;;;;15.35;2.30;;;-1.60;99.90;;;;;;5057802;28;20432;-73
2021/12/25 02:04:51;;;;;;;3.60;0.93;;;-1.80;99.90;;;;;;5076180;28;20084;-73
2021/12/25 02:07:18;;;;;;;3.72;0.80;;;-1.90;99.90;;;;;;5075828;28;20076;-72
2021/12/25 02:09:44;;;;;;;3.33;1.25;;;-1.20;99.90;;;;;;5057894;28;20052;-73
2021/12/25 02:12:11;;;;;;;6.75;0.90;;;-1.90;99.90;;;;;;5076424;28;20036;-72
2021/12/25 02:14:38;;;;;;;2.10;0.82;;;-2.00;99.90;;;;;;5057561;28;20109;-73
2021/12/25 02:17:20;;;;;;;4.25;0.75;;;-1.10;99.90;;;;;;5058330;28;20076;-72
2021/12/25 02:19:55;;;;;;;1.05;0.40;;;-2.00;99.90;;;;;;5055009;28;20056;-72
2021/12/25 02:22:25;;;;;;;4.85;1.23;;;-2.10;99.90;;;;;;5055293;28;20422;-72
2021/12/25 02:24:51;;;;;;;1.85;0.75;;;-2.10;99.90;;;;;;5054925;28;20531;-72
2021/12/25 02:27:17;;;;;;;2.53;0.95;;;-2.10;99.90;;;;;;5038150;28;20049;-72
2021/12/25 02:29:43;;;;;;;1.45;0.68;;;-2.20;99.90;;;;;;5037023;28;20063;-72
2021/12/25 02:32:09;;;;;;;2.38;0.75;;;-2.20;99.90;;;;;;5038335;28;20041;-72
2021/12/25 02:34:34;;;;;;;3.10;0.82;;;-2.20;99.90;;;;;;5066344;28;20495;-72
2021/12/25 02:37:00;;;;;;;1.17;0.65;;;-2.30;99.90;;;;;;5057022;28;20479;-72
2021/12/25 02:39:26;;;;;;;7.93;0.93;;;-2.30;99.90;;;;;;5058183;28;20048;-72
2021/12/25 02:41:52;;;;;;;2.25;0.70;;;-2.30;99.90;;;;;;5075638;28;20442;-72
2021/12/25 02:44:18;;;;;;;4.38;0.95;;;-2.30;99.90;;;;;;5074959;28;20084;-73
2021/12/25 02:46:44;;;;;;;4.93;1.25;;;-2.40;99.90;;;;;;5075742;28;20094;-72
2021/12/25 02:49:13;;;;;;;0.90;0.55;;;-2.40;99.90;;;;;;5075408;28;20043;-72
2021/12/25 02:51:43;;;;;;;7.72;0.85;;;-2.40;99.90;;;;;;5074833;28;20070;-71
2021/12/25 02:54:08;;;;;;;4.38;0.70;;;-1.60;99.90;;;;;;5057659;28;20051;-72
2021/12/25 02:56:34;;;;;;;2.10;0.70;;;-2.40;99.90;;;;;;5074597;28;20044;-72
2021/12/25 02:59:00;;;;;;;0.80;0.60;;;-2.50;99.90;;;;;;5075351;28;20083;-72
2021/12/25 03:01:26;;;;;;;5.18;0.70;;;-2.50;99.90;;;;;;5057392;28;20098;-72
2021/12/25 03:03:52;;;;;;;3.38;0.60;;;-2.50;99.90;;;;;;5074372;28;20048;-72
2021/12/25 03:06:18;;;;;;;2.72;0.88;;;-2.50;99.90;;;;;;5075065;28;20063;-71
2021/12/25 03:08:45;;;;;;;1.15;0.50;;;-2.50;99.90;;;;;;5075301;28;20036;-72
2021/12/25 03:11:14;;;;;;;1.42;0.65;;;-2.50;99.90;;;;;;5074335;28;20048;-72
2021/12/25 03:13:58;;;;;;;3.22;0.85;;;-2.60;99.90;;;;;;5057244;28;20403;-72
2021/12/25 03:16:24;;;;;;;1.42;0.60;;;-2.60;99.90;;;;;;5075308;28;20553;-72
2021/12/25 03:18:53;;;;;;;1.92;0.50;;;-2.60;99.90;;;;;;5055980;28;20048;-71
2021/12/25 03:21:19;;;;;;;2.90;0.70;;;-2.60;99.90;;;;;;5057204;28;20106;-72
2021/12/25 03:23:48;;;;;;;2.30;0.63;;;-2.70;99.90;;;;;;5057015;28;20044;-71
2021/12/25 03:26:15;;;;;;;5.47;0.88;;;-2.70;99.90;;;;;;5056144;28;20124;-72
2021/12/25 03:28:44;;;;;;;1.88;0.60;;;-2.70;99.90;;;;;;5074883;28;20109;-72
2021/12/25 03:31:16;;;;;;;0.85;0.60;;;-1.90;99.90;;;;;;5057110;28;20052;-71
2021/12/25 03:33:47;;;;;;;1.38;0.70;;;-2.80;99.90;;;;;;5056051;28;20116;-72
2021/12/25 03:36:14;;;;;;;1.77;0.85;;;-2.80;99.90;;;;;;5074756;28;20052;-71
2021/12/25 03:38:40;;;;;;;1.20;0.63;;;-2.80;99.90;;;;;;5056518;28;20056;-72
2021/12/25 03:41:06;;;;;;;0.70;0.65;;;-2.90;99.90;;;;;;5056174;28;20125;-72
2021/12/25 03:43:37;;;;;;;2.60;0.55;;;-2.80;99.90;;;;;;5074531;28;20045;-72
2021/12/25 03:46:05;;;;;;;3.40;0.70;;;-2.90;99.90;;;;;;5055918;28;20048;-71
2021/12/25 03:48:56;;;;;;;1.70;0.65;;;-2.90;99.90;;;;;;5055828;28;20127;-72
2021/12/25 03:59:13;;;;;;;4.82;0.90;;;-3.00;99.90;;;;;;5056386;28;20514;-71
2021/12/25 04:06:34;;;;;;;3.92;0.63;;;-3.10;99.90;;;;;;5056517;28;20056;-71
2021/12/25 04:09:03;;;;;;;5.85;0.70;;;-3.10;99.90;;;;;;5073232;28;20484;-72
2021/12/25 04:11:34;;;;;;;1.05;0.52;;;-3.10;99.90;;;;;;5056421;28;20058;-71
2021/12/25 04:14:00;;;;;;;0.75;0.50;;;-3.10;99.90;;;;;;5055230;28;20059;-72
2021/12/25 04:16:28;;;;;;;2.38;0.60;;;-3.10;99.90;;;;;;5055518;28;20045;-72
2021/12/25 04:18:55;;;;;;;2.63;0.68;;;-3.10;99.90;;;;;;5073140;28;20451;-72
2021/12/25 04:21:23;;;;;;;2.22;0.77;;;-3.10;99.90;;;;;;5073102;28;20040;-72
2021/12/25 04:23:49;;;;;;;1.25;0.70;;;-3.20;99.90;;;;;;5073896;28;20435;-71
2021/12/25 04:26:15;;;;;;;8.82;1.00;;;-3.20;99.90;;;;;;5073619;28;20116;-71
2021/12/25 04:29:01;;;;;;;3.03;1.42;;;-3.20;99.90;;;;;;5073158;28;20449;-71
2021/12/25 04:31:47;;;;;;;3.28;0.50;;;-3.20;99.90;;;;;;5073691;28;20063;-72
2021/12/25 05:01:54;;;;;;;3.75;0.70;;;-3.50;99.90;;;;;;5072566;28;20427;-71
2021/12/25 05:06:51;;;;;;;1.17;0.98;;;-3.50;99.90;;;;;;5073187;28;20518;-71
2021/12/25 05:09:17;;;;;;;2.58;0.50;;;-3.50;99.90;;;;;;5073277;28;20045;-71
2021/12/25 05:11:44;;;;;;;1.55;0.98;;;-3.50;99.90;;;;;;5054440;28;20416;-71
2021/12/25 05:14:09;;;;;;;2.80;0.70;;;-3.50;99.90;;;;;;5073066;28;20178;-71
2021/12/25 05:16:35;;;;;;;0.85;0.50;;;-3.50;99.90;;;;;;5073346;28;20094;-71
2021/12/25 05:19:01;;;;;;;2.53;0.90;;;-3.50;99.90;;;;;;5071977;28;20044;-71
2021/12/25 05:21:27;;;;;;;1.85;0.73;;;-3.60;99.90;;;;;;5072857;28;20535;-71
2021/12/25 05:23:53;;;;;;;0.52;0.40;;;-3.60;99.90;;;;;;5073161;28;20392;-71
2021/12/25 05:26:19;;;;;;;2.42;0.50;;;-3.60;99.90;;;;;;5072380;28;20040;-71
2021/12/25 05:28:52;;;;;;;1.85;0.60;;;-3.60;99.90;;;;;;5055331;28;20499;-71
2021/12/25 05:31:18;;;;;;;4.72;0.68;;;-3.70;99.90;;;;;;5053994;28;20057;-72
2021/12/25 05:33:43;;;;;;;3.33;0.70;;;-3.70;99.90;;;;;;5054795;28;20040;-71
2021/12/25 05:36:10;;;;;;;2.17;0.82;;;-3.70;99.90;;;;;;5055278;28;20116;-71
2021/12/25 05:38:36;;;;;;;1.83;0.70;;;-3.70;99.90;;;;;;5072376;28;20056;-71
2021/12/25 05:41:02;;;;;;;2.92;0.50;;;-3.70;99.90;;;;;;5073085;28;20503;-71
2021/12/25 05:43:28;;;;;;;3.25;0.90;;;-3.70;99.90;;;;;;5073067;28;20102;-71
2021/12/25 05:45:54;;;;;;;2.17;0.55;;;-3.80;99.90;;;;;;5054325;28;20049;-71
2021/12/25 05:48:20;;;;;;;1.10;0.57;;;-3.80;99.90;;;;;;5072885;28;20396;-71
2021/12/25 05:50:46;;;;;;;1.77;0.60;;;-3.80;99.90;;;;;;5072779;28;20044;-71
2021/12/25 05:53:12;;;;;;;1.42;0.63;;;-3.80;99.90;;;;;;5054121;28;20056;-71
2021/12/25 05:55:38;;;;;;;1.63;0.55;;;-3.80;99.90;;;;;;5055275;28;20045;-71
2021/12/25 05:58:04;;;;;;;3.67;0.68;;;-3.30;99.90;;;;;;5072695;28;20105;-71
2021/12/25 06:00:31;;;;;;;3.42;0.70;;;-3.80;99.90;;;;;;5054249;28;20123;-72
2021/12/25 06:02:58;;;;;;;6.35;0.75;;;-3.80;99.90;;;;;;5072731;28;20507;-71
2021/12/25 06:05:25;;;;;;;3.20;0.88;;;-3.00;99.90;;;;;;5054329;28;20484;-71
2021/12/25 06:07:51;;;;;;;1.48;0.57;;;-3.90;99.90;;;;;;5053974;28;20040;-71
2021/12/25 06:10:17;;;;;;;4.07;0.70;;;-3.90;99.90;;;;;;5072809;28;20127;-71
2021/12/25 06:12:47;;;;;;;2.38;0.60;;;-3.90;99.90;;;;;;5056270;28;20040;-71
2021/12/25 06:15:20;;;;;;;2.83;0.82;;;-3.90;99.90;;;;;;5057811;28;20049;-71
2021/12/25 06:17:46;;;;;;;1.45;0.70;;;-3.90;99.90;;;;;;5058365;28;20044;-71
2021/12/25 06:20:13;;;;;;;3.13;0.82;;;-4.00;99.90;;;;;;5076210;28;20055;-71
2021/12/25 06:22:39;;;;;;;0.82;0.60;;;-4.00;99.90;;;;;;5074955;28;20484;-71
2021/12/25 06:25:06;;;;;;;3.03;0.82;;;-4.00;99.90;;;;;;5075694;28;20091;-71
2021/12/25 06:27:32;;;;;;;1.90;0.63;;;-4.00;99.90;;;;;;5075565;28;20048;-71
2021/12/25 06:29:58;;;;;;;1.30;0.90;;;-3.80;99.90;;;;;;5076146;28;20381;-71
2021/12/25 06:32:24;;;;;;;1.95;0.90;;;-4.00;99.90;;;;;;5076239;28;20047;-71
2021/12/25 06:34:50;;;;;;;2.38;0.93;;;-4.00;99.90;;;;;;5074870;28;20408;-71
2021/12/25 06:37:17;;;;;;;1.33;0.75;;;-4.00;99.90;;;;;;5075528;28;20067;-71
2021/12/25 06:39:43;;;;;;;3.40;0.50;;;-4.00;99.90;;;;;;5075869;28;20447;-71
2021/12/25 06:42:10;;;;;;;0.68;0.50;;;-4.00;99.90;;;;;;5075057;28;20445;-71
2021/12/25 06:44:36;;;;;;;1.98;0.50;;;-4.00;99.90;;;;;;5057697;28;20044;-71
2021/12/25 06:47:03;;;;;;;3.17;1.00;;;-4.10;99.90;;;;;;5057770;28;20052;-71
2021/12/25 06:49:29;;;;;;;2.58;0.60;;;-4.10;99.90;;;;;;5053572;28;20046;-71
2021/12/25 06:51:55;;;;;;;1.42;1.23;;;-4.10;99.90;;;;;;5037796;28;20049;-71
2021/12/25 06:54:20;;;;;;;3.63;0.60;;;-4.10;99.90;;;;;;5037640;28;20048;-71
2021/12/25 06:56:48;;;;;;;1.45;0.60;;;-4.10;99.90;;;;;;5036802;28;20041;-71
2021/12/25 06:59:15;;;;;;;2.35;0.80;;;-4.10;99.90;;;;;;5037666;28;20110;-71
2021/12/25 07:01:41;;;;;;;1.27;0.52;;;-4.10;99.90;;;;;;5055532;28;20051;-71
2021/12/25 07:04:07;;;;;;;4.35;1.00;;;-4.10;99.90;;;;;;5060532;28;20044;-71
2021/12/25 07:06:34;;;;;;;3.83;0.88;;;-4.10;99.90;;;;;;5057339;28;20053;-71
2021/12/25 07:09:00;;;;;;;3.10;0.70;;;-4.20;99.90;;;;;;5057233;28;20049;-71
2021/12/25 07:11:26;;;;;;;3.60;0.60;;;-3.80;99.90;;;;;;5056638;28;20488;-71
2021/12/25 07:13:52;;;;;;;4.72;0.68;;;-4.20;99.90;;;;;;5057840;28;20067;-71
2021/12/25 07:16:19;;;;;;;7.32;0.70;;;-4.20;99.90;;;;;;5057330;28;20037;-71
2021/12/25 07:18:45;;;;;;;2.47;0.63;;;-4.30;99.90;;;;;;5055861;28;20052;-71
2021/12/25 07:21:11;;;;;;;3.58;0.88;;;-4.30;99.90;;;;;;5057154;28;20048;-71
2021/12/25 07:23:40;;;;;;;1.67;0.52;;;-4.30;99.90;;;;;;5056050;28;20442;-71
2021/12/25 07:26:06;;;;;;;0.80;0.60;;;-4.30;99.90;;;;;;5056154;28;20045;-71
2021/12/25 07:28:32;;;;;;;3.28;0.85;;;-4.30;99.90;;;;;;5057097;28;20488;-71
2021/12/25 07:31:00;;;;;;;4.70;0.98;;;-4.30;99.90;;;;;;5056073;28;20083;-71
2021/12/25 07:33:31;;;;;;;1.35;0.60;;;-4.30;99.90;;;;;;5056948;28;20060;-71
2021/12/25 07:35:57;;;;;;;3.28;0.68;;;-4.30;99.90;;;;;;5056588;28;20369;-71
2021/12/25 07:38:24;;;;;;;0.85;0.70;;;-4.20;99.90;;;;;;5056077;28;20088;-71
2021/12/25 07:40:50;;;;;;;5.03;0.70;;;-4.30;99.90;;;;;;5074707;28;20051;-71
2021/12/25 07:43:17;;;;;;;1.17;0.50;;;-4.30;99.90;;;;;;5057037;28;20056;-71
2021/12/25 07:45:48;;;;;;;2.85;0.47;;;-4.30;99.90;;;;;;5039168;28;20049;-71
2021/12/25 07:48:18;;;;;;;2.15;0.50;;;-4.30;99.90;;;;;;5056730;28;20120;-71
2021/12/25 07:50:44;;;;;;;4.30;0.70;;;-4.30;99.90;;;;;;5074360;28;20132;-71
2021/12/25 07:53:10;;;;;;;1.38;0.60;;;-4.20;99.90;;;;;;5055609;28;20131;-71
2021/12/25 07:55:37;;;;;;;1.25;0.70;;;-4.30;99.90;;;;;;5056376;28;20052;-71
2021/12/25 07:58:02;;;;;;;1.20;0.50;;;-4.30;99.90;;;;;;5056697;28;20380;-71
2021/12/25 08:00:29;;;;;;;1.65;0.73;;;-4.30;99.90;;;;;;5055384;28;20044;-71
2021/12/25 08:02:55;;;;;;;0.75;0.50;;;-4.30;99.90;;;;;;5074022;28;20503;-71
2021/12/25 08:05:21;;;;;;;5.30;0.82;;;-4.30;99.90;;;;;;5073910;28;20045;-71
2021/12/25 08:07:47;;;;;;;4.22;1.00;;;-4.30;99.90;;;;;;5073318;28;20052;-71
2021/12/25 08:10:16;;;;;;;4.53;0.98;;;-4.30;99.90;;;;;;5074125;28;20048;-71
2021/12/25 08:13:02;;;;;;;3.28;0.93;;;-4.30;99.90;;;;;;5055921;28;20051;-71
2021/12/25 08:15:30;;;;;;;1.67;1.05;;;-4.30;99.90;;;;;;5073684;28;20099;-71
2021/12/25 08:17:57;;;;;;;8.75;2.75;;;-4.30;99.90;;;;;;5073820;28;20473;-71
2021/12/25 08:20:24;;;;;;;2.00;0.47;;;-4.30;99.90;;;;;;5072703;28;20066;-71
2021/12/25 08:22:50;;;;;;;4.88;1.08;;;-3.50;99.90;;;;;;5055993;28;20048;-71
2021/12/25 08:25:17;;;;;;;3.38;1.20;;;-4.30;99.90;;;;;;5055603;28;20091;-71
2021/12/25 08:27:45;;;;;;;8.48;2.83;;;-4.20;99.90;;;;;;5054687;28;20071;-71
2021/12/25 08:30:15;;;;;;;1.95;0.95;;;-4.20;99.90;;;;;;5055756;28;20052;-71
2021/12/25 08:32:43;;;;;;;2.70;0.80;;;-4.20;99.90;;;;;;5073998;28;20057;-71
2021/12/25 08:35:10;;;;;;;3.85;1.00;;;-4.20;99.90;;;;;;5054394;28;20048;-71
2021/12/25 08:37:36;;;;;;;4.15;0.70;;;-4.20;99.90;;;;;;5055578;28;20510;-71
2021/12/25 08:40:04;;;;;;;2.72;0.57;;;-4.10;99.90;;;;;;5055521;28;20052;-71
2021/12/25 08:42:30;;;;;;;3.40;0.80;;;-4.10;99.90;;;;;;5072668;28;20093;-71
2021/12/25 08:47:27;;;;;;;5.82;2.35;;;-4.10;99.90;;;;;;5055772;28;20503;-71
2021/12/25 08:49:54;;;;;;;3.72;1.10;;;-3.70;99.90;;;;;;5054580;28;20480;-71
2021/12/25 08:52:22;;;;;;;2.20;1.00;;;-4.00;99.90;;;;;;5073064;28;20119;-71
2021/12/25 08:54:52;;;;;;;4.78;0.60;;;-4.00;99.90;;;;;;5073521;28;20094;-71
2021/12/25 08:57:21;;;;;;;5.25;0.90;;;-4.00;99.90;;;;;;5072554;28;20395;-71
2021/12/25 08:59:47;;;;;;;2.08;0.68;;;-3.90;99.90;;;;;;5073441;28;20115;-71
2021/12/25 09:02:17;;;;;;;4.40;0.70;;;-3.90;99.90;;;;;;5073502;28;20452;-71
2021/12/25 09:04:45;;;;;;;1.45;0.50;;;-3.90;99.90;;;;;;5051642;28;20132;-71
2021/12/25 09:07:11;;;;;;;0.60;0.50;;;-3.80;99.90;;;;;;5053138;28;20076;-71
2021/12/25 09:09:37;;;;;;;4.63;0.82;;;-3.80;99.90;;;;;;5034742;28;20575;-71
2021/12/25 09:12:04;;;;;;;7.00;0.73;;;-3.80;99.90;;;;;;5035155;28;20053;-71
2021/12/25 09:14:30;;;;;;;2.17;0.77;;;-3.70;99.90;;;;;;5053840;28;20052;-71
2021/12/25 09:16:59;;;;;;;1.42;0.70;;;-3.70;99.90;;;;;;5034778;28;20080;-71
2021/12/25 09:19:24;;;;;;;1.75;0.60;;;-3.70;99.90;;;;;;5044245;28;20099;-71
2021/12/25 09:21:50;;;;;;;3.40;0.70;;;-3.60;99.90;;;;;;5034966;28;20127;-72
2021/12/25 09:24:16;;;;;;;0.80;0.60;;;-3.60;99.90;;;;;;5052202;28;20053;-71
2021/12/25 09:26:45;;;;;;;6.97;0.60;;;-3.10;99.90;;;;;;5062693;28;20090;-72
2021/12/25 09:29:11;;;;;;;4.13;0.70;;;-3.50;99.90;;;;;;5073137;28;20045;-71
2021/12/25 09:31:37;;;;;;;2.10;0.73;;;-3.50;99.90;;;;;;5072230;28;20094;-71
2021/12/25 09:34:03;;;;;;;4.65;1.00;;;-3.40;99.90;;;;;;5072661;28;20120;-71
2021/12/25 09:36:32;;;;;;;1.80;0.73;;;-3.40;99.90;;;;;;5072703;28;20041;-71
2021/12/25 09:38:58;;;;;;;5.72;1.67;;;-3.30;99.90;;;;;;5072169;28;20052;-71
2021/12/25 09:41:24;;;;;;;1.77;0.60;;;-3.30;99.90;;;;;;5072914;28;20045;-71
2021/12/25 09:43:50;;;;;;;2.33;1.00;;;-3.20;99.90;;;;;;5055085;28;20115;-72
2021/12/25 09:46:17;;;;;;;4.22;1.02;;;-3.10;99.90;;;;;;5051203;28;20527;-71
2021/12/25 09:48:43;;;;;;;7.32;1.77;;;-3.10;99.90;;;;;;5058707;28;20113;-72
2021/12/25 09:51:09;;;;;;;1.65;0.65;;;-3.10;99.90;;;;;;5076870;28;20392;-72
2021/12/25 09:53:35;;;;;;;1.75;0.63;;;-2.50;99.90;;;;;;5075982;28;20040;-72
2021/12/25 09:56:03;;;;;;;2.97;0.75;;;-3.00;99.90;;;;;;5076797;28;20609;-71
2021/12/25 09:58:29;;;;;;;5.38;1.65;;;-3.00;99.90;;;;;;5076724;28;20045;-71
2021/12/25 10:00:57;;;;;;;5.03;1.00;;;-3.00;99.90;;;;;;5057839;28;20060;-71
2021/12/25 10:03:39;;;;;;;1.38;0.68;;;-3.00;99.90;;;;;;5058902;28;20384;-71
2021/12/25 10:06:05;;;;;;;2.20;1.30;;;-2.90;99.90;;;;;;5037898;28;20110;-71
2021/12/25 10:08:31;;;;;;;3.90;0.68;;;-2.70;99.90;;;;;;5056530;28;20604;-71
2021/12/25 10:11:01;;;;;;;2.63;0.50;;;-2.90;99.90;;;;;;5038525;28;20123;-71
2021/12/25 10:13:40;;;;;;;0.85;0.60;;;-2.90;99.90;;;;;;5037607;28;20512;-71
2021/12/25 10:16:30;;;;;;;0.90;0.57;;;-2.80;99.90;;;;;;5056448;28;20079;-71
2021/12/25 10:19:21;;;;;;;3.15;0.70;;;-2.80;99.90;;;;;;5041761;28;20524;-72
2021/12/25 10:21:48;;;;;;;1.98;0.63;;;-2.80;99.90;;;;;;5075585;28;20044;-72
2021/12/25 10:24:24;;;;;;;4.85;1.35;;;-2.80;99.90;;;;;;5075973;28;20049;-71
2021/12/25 10:26:50;;;;;;;2.33;0.82;;;-1.90;99.90;;;;;;5075494;28;20121;-72
2021/12/25 10:29:28;;;;;;;3.63;0.70;;;-2.70;99.90;;;;;;5075615;28;20551;-72
2021/12/25 10:31:58;;;;;;;4.82;0.90;;;-2.40;99.90;;;;;;5076073;28;20119;-71
2021/12/25 10:34:27;;;;;;;4.53;0.77;;;-1.90;99.90;;;;;;5075123;28;20488;-71
2021/12/25 10:36:54;;;;;;;2.08;0.70;;;-2.60;99.90;;;;;;5075663;28;20044;-72
2021/12/25 10:39:25;;;;;;;3.80;0.70;;;-2.60;99.90;;;;;;5057593;28;20480;-71
2021/12/25 10:42:15;;;;;;;7.65;0.75;;;-2.60;99.90;;;;;;5075089;28;20044;-72
2021/12/25 10:44:47;;;;;;;1.50;0.77;;;-2.50;99.90;;;;;;5075526;28;20049;-72
2021/12/25 10:47:14;;;;;;;1.90;0.63;;;-2.50;99.90;;;;;;5075789;28;20523;-71
2021/12/25 10:49:53;;;;;;;4.88;0.80;;;-2.50;99.90;;;;;;5053304;28;20056;-72
2021/12/25 10:52:24;;;;;;;3.03;0.90;;;-2.40;99.90;;;;;;5055644;28;20057;-72
2021/12/25 10:54:58;;;;;;;1.83;0.80;;;-2.40;99.90;;;;;;5036834;28;20132;-71
2021/12/25 10:57:46;;;;;;;4.22;0.85;;;-2.40;99.90;;;;;;5059707;28;20037;-72
2021/12/25 11:00:31;;;;;;;5.55;0.80;;;-2.40;99.90;;;;;;5075417;28;20049;-72
2021/12/25 11:03:04;;;;;;;3.05;0.70;;;-2.30;99.90;;;;;;5074760;28;20426;-72
2021/12/25 11:05:31;;;;;;;1.17;0.73;;;-2.30;99.90;;;;;;5075168;28;20040;-72
2021/12/25 11:08:15;;;;;;;1.30;0.80;;;-2.10;99.90;;;;;;5075349;28;20047;-72
2021/12/25 11:11:06;;;;;;;1.88;0.93;;;-1.80;99.90;;;;;;5074690;28;20052;-72
2021/12/25 11:13:39;;;;;;;7.03;2.92;;;-2.20;99.90;;;;;;5064098;28;20048;-72
2021/12/25 11:16:22;;;;;;;3.15;0.63;;;-2.30;99.90;;;;;;5074426;28;20052;-72
2021/12/25 11:21:45;;;;;;;1.15;0.90;;;-2.20;99.90;;;;;;5075321;28;20119;-72
2021/12/25 11:24:19;;;;;;;3.65;1.00;;;-2.10;99.90;;;;;;5074078;28;20056;-72
2021/12/25 11:26:52;;;;;;;2.78;0.70;;;-2.10;99.90;;;;;;5075171;28;20112;-71
2021/12/25 11:29:20;;;;;;;3.10;0.73;;;-2.10;99.90;;;;;;5057156;28;20438;-72
2021/12/25 11:31:48;;;;;;;3.83;0.68;;;-2.10;99.90;;;;;;5074205;28;20093;-72
2021/12/25 11:34:15;;;;;;;1.95;0.80;;;-1.50;99.90;;;;;;5056614;28;20395;-72
2021/12/25 11:36:47;;;;;;;4.88;1.50;;;-2.00;99.90;;;;;;5074441;28;20045;-72
2021/12/25 11:39:17;;;;;;;2.63;0.70;;;-2.00;99.90;;;;;;5073897;28;20044;-72
2021/12/25 11:41:44;;;;;;;1.10;0.60;;;-1.90;99.90;;;;;;5074744;28;20048;-72
2021/12/25 11:44:35;;;;;;;1.15;0.80;;;-1.60;99.90;;;;;;5073845;28;20392;-73
2021/12/25 11:47:03;;;;;;;2.38;0.70;;;-1.70;99.90;;;;;;5074637;28;20056;-72
2021/12/25 11:49:29;;;;;;;2.95;1.05;;;-1.70;99.90;;;;;;5074285;28;20051;-72
2021/12/25 11:52:12;;;;;;;0.95;0.80;;;-1.10;99.90;;;;;;5073634;28;20052;-72
2021/12/25 11:57:51;;;;;;;3.05;0.95;;;-1.60;99.90;;;;;;5074378;28;20203;-72
2021/12/25 11:59:52;;;;;;;3.15;1.00;;;-1.60;99.90;;;;;;5041840;28;20056;-72
2021/12/25 12:02:41;;;;;;;2.85;0.73;;;-0.80;99.90;;;;;;5074229;28;20070;-72
2021/12/25 12:05:26;;;;;;;1.75;0.70;;;-1.50;99.90;;;;;;5055468;28;20053;-72
2021/12/25 12:07:59;;;;;;;3.28;1.00;;;-1.50;99.90;;;;;;5056572;28;20044;-72
2021/12/25 12:10:44;;;;;;;1.80;0.70;;;-1.00;99.90;;;;;;5073595;28;20040;-72
2021/12/25 12:13:26;;;;;;;2.83;0.70;;;-1.00;99.90;;;;;;5073424;28;20102;-72
2021/12/25 12:15:55;;;;;;;3.20;0.80;;;-1.30;99.90;;;;;;5056394;28;20404;-72
2021/12/25 12:18:23;;;;;;;2.53;0.80;;;-1.30;99.90;;;;;;5055805;28;20056;-72
2021/12/25 12:20:49;;;;;;;3.50;0.60;;;-1.10;99.90;;;;;;5051563;28;20175;-72
2021/12/25 12:23:45;;;;;;;1.67;0.73;;;-1.30;99.90;;;;;;5053975;28;20124;-72
2021/12/25 12:26:13;;;;;;;3.47;1.10;;;-1.30;99.90;;;;;;5054036;28;20049;-73
2021/12/25 12:28:54;;;;;;;4.53;1.05;;;-1.30;99.90;;;;;;5068611;28;20090;-72
2021/12/25 12:31:40;;;;;;;1.15;1.05;;;-1.30;99.90;;;;;;5073880;28;20091;-73
2021/12/25 12:34:37;;;;;;;2.50;0.63;;;-1.30;99.90;;;;;;5055030;28;20048;-72
2021/12/25 12:37:15;;;;;;;1.50;0.60;;;-1.40;99.90;;;;;;5055586;28;20397;-73
2021/12/25 12:39:53;;;;;;;2.95;0.90;;;-1.20;99.90;;;;;;5055878;28;20052;-72
2021/12/25 12:42:21;;;;;;;3.50;0.80;;;-1.40;99.90;;;;;;5072765;28;20047;-73
2021/12/25 12:44:49;;;;;;;6.38;1.05;;;-0.80;99.90;;;;;;5055756;28;20050;-72
2021/12/25 12:47:19;;;;;;;2.85;0.70;;;-1.50;99.90;;;;;;5073767;28;20478;-72
2021/12/25 12:49:50;;;;;;;6.25;0.70;;;-1.50;99.90;;;;;;5055274;28;20138;-72
2021/12/25 12:52:22;;;;;;;1.17;0.90;;;-1.30;99.90;;;;;;5073581;28;20492;-72
2021/12/25 12:54:57;;;;;;;4.10;0.70;;;-1.50;99.90;;;;;;5072554;28;20089;-72
2021/12/25 12:57:33;;;;;;;1.50;0.93;;;-1.50;99.90;;;;;;5073378;28;20091;-72
2021/12/25 13:00:08;;;;;;;1.73;1.08;;;-1.50;99.90;;;;;;5073614;28;20040;-72
2021/12/25 13:02:44;;;;;;;2.08;0.82;;;-0.70;99.90;;;;;;5072723;28;20040;-72
2021/12/25 13:05:10;;;;;;;4.35;1.13;;;-1.50;99.90;;;;;;5073015;28;20048;-72
2021/12/25 13:07:40;;;;;;;3.05;0.90;;;-1.50;99.90;;;;;;5073365;28;20515;-72
2021/12/25 13:10:17;;;;;;;2.10;0.60;;;-1.20;99.90;;;;;;5072679;28;20087;-72
2021/12/25 13:12:48;;;;;;;3.45;0.70;;;-1.50;99.90;;;;;;5055560;28;20081;-72
2021/12/25 13:15:25;;;;;;;1.45;0.70;;;-1.50;99.90;;;;;;5073344;28;20055;-72
2021/12/25 13:18:00;;;;;;;5.47;0.70;;;-1.50;99.90;;;;;;5054443;28;20067;-72
2021/12/25 13:20:40;;;;;;;3.53;0.70;;;-1.40;99.90;;;;;;5072902;28;20044;-72
2021/12/25 13:23:10;;;;;;;2.60;0.75;;;-1.50;99.90;;;;;;5075503;28;20488;-72
2021/12/25 13:25:42;;;;;;;1.20;0.65;;;-1.50;99.90;;;;;;5077262;28;20047;-72
2021/12/25 13:28:08;;;;;;;2.97;0.90;;;-1.40;99.90;;;;;;5058883;28;20097;-72
2021/12/25 13:30:34;;;;;;;2.72;0.60;;;-1.50;99.90;;;;;;5058733;28;20127;-72
2021/12/25 13:33:13;;;;;;;2.15;0.90;;;-1.50;99.90;;;;;;5077276;28;20062;-72
2021/12/25 13:35:40;;;;;;;1.85;0.60;;;-1.40;99.90;;;;;;5076425;28;20060;-72
2021/12/25 13:38:07;;;;;;;3.58;0.85;;;-1.50;99.90;;;;;;5076085;28;20051;-72
2021/12/25 13:40:33;;;;;;;1.30;0.65;;;-1.50;99.90;;;;;;5077148;28;20048;-72
2021/12/25 13:43:10;;;;;;;2.30;0.73;;;-0.80;99.90;;;;;;5076875;28;20040;-72
2021/12/25 13:45:37;;;;;;;3.22;1.00;;;-1.50;99.90;;;;;;5076134;28;20060;-72
2021/12/25 13:48:05;;;;;;;4.30;0.82;;;-1.50;99.90;;;;;;5076926;28;20044;-71
2021/12/25 13:50:32;;;;;;;1.67;0.70;;;-1.60;99.90;;;;;;5076216;28;20059;-71
2021/12/25 13:53:00;;;;;;;1.27;0.65;;;-1.60;99.90;;;;;;5058045;28;20050;-71
2021/12/25 13:55:29;;;;;;;3.85;0.93;;;-0.90;99.90;;;;;;5058709;28;20055;-72
2021/12/25 13:58:05;;;;;;;4.60;0.90;;;-1.60;99.90;;;;;;5057915;28;20055;-72
2021/12/25 14:00:36;;;;;;;2.20;0.80;;;-1.60;99.90;;;;;;5058732;28;20056;-71
2021/12/25 14:03:11;;;;;;;6.38;0.90;;;-1.60;99.90;;;;;;5076426;28;20036;-72
2021/12/25 14:05:39;;;;;;;3.33;1.00;;;-1.60;99.90;;;;;;5075366;28;20057;-72
2021/12/25 14:08:06;;;;;;;5.10;1.48;;;-1.60;99.90;;;;;;5058548;28;20044;-72
2021/12/25 14:10:33;;;;;;;1.85;0.65;;;-1.70;99.90;;;;;;5076537;28;20052;-72
2021/12/25 14:13:03;;;;;;;2.40;0.93;;;-1.70;99.90;;;;;;5075541;28;20094;-72
2021/12/25 14:15:33;;;;;;;3.22;0.90;;;-1.70;99.90;;;;;;5076312;28;20084;-72
2021/12/25 14:18:04;;;;;;;1.95;0.80;;;-1.70;99.90;;;;;;5075786;28;20403;-73
2021/12/25 14:20:33;;;;;;;2.88;0.90;;;-1.70;99.90;;;;;;5074096;28;20041;-72
2021/12/25 14:23:11;;;;;;;3.42;0.98;;;-1.70;99.90;;;;;;5074961;28;20529;-72
2021/12/25 14:25:44;;;;;;;3.83;1.08;;;-1.70;99.90;;;;;;5075055;28;20044;-72